Aviation Digital Data Service (ADDS)

Output produced by METARs form (1422 UTC 10 July 2020)
found at http://www.aviationweather.gov/metar/data/
 
KFLO 101353Z 12003KT 10SM FEW011 28/24 A2993 RMK AO2 SLP131 T02830239
KFLO 101325Z 00000KT 10SM FEW009 28/23 A2993 RMK AO2 T02780233
KFLO 101129Z 1012/1112 34005KT P6SM SCT100 
     FM101800 29005KT P6SM VCTS SCT050CB 
     FM110000 20005KT P6SM SCT100